Time;durP1;ratioP1;P1;durP2;ratioP2;P2;SDS_P1;SDS_P2;PMS_P1;PMS_P2;Temp;Humidity;BMP_temperature;BMP_pressure;BME280_temperature;BME280_humidity;BME280_pressure;Samples;Min_cycle;Max_cycle;Signal;HPM_P1;HPM_P2
2022/12/24 00:03:32;;;;;;;17.80;6.03;;;9.30;99.90;;;;;;12595253;28;20047;-85
2022/12/24 00:09:34;;;;;;;14.75;4.88;;;9.60;99.90;;;;;;12581911;28;20040;-87
2022/12/24 00:15:36;;;;;;;16.75;4.15;;;9.60;99.90;;;;;;12586262;28;20062;-86
2022/12/24 00:21:38;;;;;;;17.55;3.80;;;9.70;99.90;;;;;;12592854;28;20048;-87
2022/12/24 00:27:40;;;;;;;12.35;3.42;;;9.80;99.90;;;;;;12570211;28;20045;-87
2022/12/24 00:33:42;;;;;;;12.07;2.95;;;9.80;99.90;;;;;;12578865;28;20071;-87
2022/12/24 00:39:44;;;;;;;12.13;3.00;;;9.90;99.90;;;;;;12597431;28;20056;-87
2022/12/24 00:45:46;;;;;;;11.57;2.60;;;9.80;99.90;;;;;;12576675;28;20040;-87
2022/12/24 00:51:48;;;;;;;10.15;2.63;;;9.80;99.90;;;;;;12594895;28;20044;-87
2022/12/24 00:57:49;;;;;;;9.48;2.75;;;9.80;99.90;;;;;;12574715;28;20056;-88
2022/12/24 01:05:08;;;;;;;8.70;2.28;;;9.80;99.90;;;;;;12587397;28;20043;-87
2022/12/24 01:10:18;;;;;;;10.65;2.20;;;9.70;99.90;;;;;;12576331;28;20052;-87
2022/12/24 01:16:20;;;;;;;9.45;2.15;;;9.60;99.90;;;;;;12575038;28;20072;-86
2022/12/24 01:22:22;;;;;;;12.68;2.58;;;9.60;99.90;;;;;;12579138;28;20042;-86
2022/12/24 01:28:24;;;;;;;11.80;2.60;;;9.60;99.90;;;;;;12593863;28;20052;-86
2022/12/24 01:34:26;;;;;;;14.52;2.78;;;9.60;99.90;;;;;;12551066;28;20512;-86
2022/12/24 01:46:53;;;;;;;10.15;2.15;;;9.60;99.90;;;;;;12538126;28;20052;-86
2022/12/24 01:52:56;;;;;;;13.98;2.60;;;9.60;99.90;;;;;;12546164;28;20932;-87
2022/12/24 01:59:04;;;;;;;14.35;2.75;;;9.70;99.90;;;;;;12529320;28;20049;-86
2022/12/24 02:05:29;;;;;;;20.30;3.45;;;9.60;99.90;;;;;;12546662;28;20036;-86
2022/12/24 02:11:32;;;;;;;14.27;2.83;;;9.60;99.90;;;;;;12528379;28;20513;-86
2022/12/24 02:17:36;;;;;;;16.42;2.97;;;9.50;99.90;;;;;;12570951;28;20088;-87
2022/12/24 02:24:00;;;;;;;17.63;2.92;;;9.40;99.90;;;;;;12610884;28;20051;-86
2022/12/24 02:30:09;;;;;;;16.70;2.42;;;9.30;99.90;;;;;;12620220;28;20059;-87
2022/12/24 02:36:18;;;;;;;21.63;3.40;;;9.30;99.90;;;;;;12623864;28;20041;-87
2022/12/24 02:42:24;;;;;;;17.48;2.63;;;9.30;99.90;;;;;;12631805;28;20093;-87
2022/12/24 02:48:28;;;;;;;20.42;3.10;;;9.30;99.90;;;;;;12650588;28;20075;-87
2022/12/24 02:54:31;;;;;;;14.30;3.08;;;9.40;99.90;;;;;;12615269;28;20386;-87
2022/12/24 03:01:15;;;;;;;17.13;3.15;;;9.40;99.90;;;;;;12631553;28;20412;-87
2022/12/24 03:07:28;;;;;;;23.55;3.92;;;9.30;99.90;;;;;;12603798;28;20052;-87
2022/12/24 03:13:30;;;;;;;17.75;3.78;;;9.20;99.90;;;;;;12575020;28;20049;-87
2022/12/24 03:19:33;;;;;;;23.38;3.75;;;9.10;99.90;;;;;;12594666;28;20089;-87
2022/12/24 03:25:41;;;;;;;19.90;3.33;;;9.10;99.90;;;;;;12596338;28;20037;-86
2022/12/24 03:31:51;;;;;;;19.88;3.47;;;9.20;99.90;;;;;;12584241;28;20079;-86
2022/12/24 03:37:52;;;;;;;16.60;2.78;;;9.30;99.90;;;;;;12588667;28;20432;-86
2022/12/24 03:43:54;;;;;;;18.20;2.95;;;9.40;99.90;;;;;;12588026;28;20412;-87
2022/12/24 03:49:57;;;;;;;24.67;3.45;;;9.40;99.90;;;;;;12592740;28;20052;-86
2022/12/24 03:55:59;;;;;;;18.83;3.35;;;9.20;99.90;;;;;;12584826;28;20412;-86
2022/12/24 04:02:00;;;;;;;22.73;3.55;;;9.10;99.90;;;;;;12581837;28;20036;-86
2022/12/24 04:08:02;;;;;;;19.33;3.88;;;9.10;99.90;;;;;;12593816;28;20060;-87
2022/12/24 04:14:04;;;;;;;16.50;3.65;;;9.10;99.90;;;;;;12564331;28;20523;-86
2022/12/24 04:20:06;;;;;;;22.00;3.65;;;9.10;99.90;;;;;;12610508;28;20056;-87
2022/12/24 04:26:11;;;;;;;18.80;3.42;;;9.10;99.90;;;;;;12584129;28;20480;-86
2022/12/24 04:32:13;;;;;;;27.98;4.50;;;9.10;99.90;;;;;;12566379;28;20580;-86
2022/12/24 04:38:15;;;;;;;24.23;3.92;;;9.00;99.90;;;;;;12578279;28;20052;-86
2022/12/24 04:44:17;;;;;;;21.60;4.30;;;9.20;99.90;;;;;;12595210;28;20040;-86
2022/12/24 04:50:18;;;;;;;26.42;4.85;;;9.20;99.90;;;;;;12575731;28;20053;-86
2022/12/24 04:56:23;;;;;;;25.65;4.07;;;9.00;99.90;;;;;;12586589;28;20053;-86
2022/12/24 05:02:25;;;;;;;25.23;4.00;;;9.00;99.90;;;;;;12593165;28;20044;-85
2022/12/24 05:08:27;;;;;;;22.83;4.03;;;8.90;99.90;;;;;;12572174;28;20044;-86
2022/12/24 05:14:29;;;;;;;33.35;5.68;;;9.00;99.90;;;;;;12595913;28;20424;-87
2022/12/24 05:20:31;;;;;;;35.35;5.75;;;8.90;99.90;;;;;;12588790;28;20053;-86
2022/12/24 05:26:39;;;;;;;27.30;4.90;;;8.80;99.90;;;;;;12595325;28;20472;-86
2022/12/24 05:32:41;;;;;;;23.67;4.93;;;8.80;99.90;;;;;;12568852;28;20052;-87
2022/12/24 05:38:43;;;;;;;27.98;5.40;;;8.80;99.90;;;;;;12601695;28;20048;-87
2022/12/24 05:44:45;;;;;;;31.20;4.63;;;8.80;99.90;;;;;;12574739;28;20044;-86
2022/12/24 05:50:46;;;;;;;28.95;4.60;;;8.90;99.90;;;;;;12591938;28;20036;-87
2022/12/24 05:56:48;;;;;;;26.77;4.45;;;8.90;99.90;;;;;;12594328;28;20060;-87
2022/12/24 06:02:50;;;;;;;26.50;4.97;;;8.80;99.90;;;;;;12597423;28;20053;-87
2022/12/24 06:08:54;;;;;;;27.52;4.70;;;8.90;99.90;;;;;;12580573;28;20040;-87
2022/12/24 06:14:55;;;;;;;21.33;3.80;;;8.80;99.90;;;;;;12591047;28;20051;-86
2022/12/24 06:20:58;;;;;;;28.75;4.50;;;8.70;99.90;;;;;;12571699;28;20055;-87
2022/12/24 06:26:59;;;;;;;34.33;5.47;;;8.80;99.90;;;;;;12586309;28;20044;-87
2022/12/24 06:33:01;;;;;;;28.52;4.63;;;8.70;99.90;;;;;;12546661;28;20044;-87
2022/12/24 06:39:03;;;;;;;29.52;5.20;;;8.70;99.90;;;;;;12590560;28;20105;-87
2022/12/24 06:45:06;;;;;;;24.40;5.75;;;8.60;99.90;;;;;;12585747;28;20037;-87
2022/12/24 06:51:09;;;;;;;32.03;5.10;;;8.60;99.90;;;;;;12596465;28;20075;-87
2022/12/24 06:57:11;;;;;;;32.60;7.25;;;8.60;99.90;;;;;;12585682;28;20052;-87
2022/12/24 07:03:12;;;;;;;25.33;4.68;;;8.60;99.90;;;;;;12589724;28;20036;-87
2022/12/24 07:09:15;;;;;;;45.95;7.10;;;8.60;99.90;;;;;;12587917;28;20051;-87
2022/12/24 07:15:16;;;;;;;31.35;6.07;;;8.60;99.90;;;;;;12571648;28;20045;-87
2022/12/24 07:21:18;;;;;;;39.97;6.53;;;8.50;99.90;;;;;;12581464;28;20045;-87
2022/12/24 07:27:20;;;;;;;29.02;7.80;;;8.50;99.90;;;;;;12590685;28;20057;-87
2022/12/24 07:33:23;;;;;;;27.42;7.05;;;8.50;99.90;;;;;;12532211;28;20122;-88
2022/12/24 07:39:25;;;;;;;30.67;8.05;;;8.50;99.90;;;;;;12543803;28;20182;-88
2022/12/24 07:45:27;;;;;;;36.17;8.35;;;8.40;99.90;;;;;;12549646;28;20489;-87
2022/12/24 07:51:28;;;;;;;36.00;8.48;;;8.40;99.90;;;;;;12534430;28;20041;-88
2022/12/24 07:57:30;;;;;;;43.03;8.15;;;8.40;99.90;;;;;;12535538;28;20064;-87
2022/12/24 08:03:32;;;;;;;25.45;7.93;;;8.40;99.90;;;;;;12542162;28;20048;-87
2022/12/24 08:09:35;;;;;;;37.08;8.88;;;8.50;99.90;;;;;;12542003;28;20128;-87
2022/12/24 08:15:37;;;;;;;34.20;8.25;;;8.50;99.90;;;;;;12525465;28;20041;-88
2022/12/24 08:21:39;;;;;;;29.20;8.00;;;8.50;99.90;;;;;;12539080;28;20044;-88
2022/12/24 08:27:41;;;;;;;28.40;7.30;;;8.50;99.90;;;;;;12526541;28;20076;-88
2022/12/24 08:33:42;;;;;;;36.03;7.82;;;8.60;99.90;;;;;;12570969;28;20428;-88
2022/12/24 08:39:44;;;;;;;35.95;7.70;;;8.60;99.90;;;;;;12568305;28;20045;-88
2022/12/24 08:45:48;;;;;;;31.52;8.40;;;8.60;99.90;;;;;;12584533;28;20048;-88
2022/12/24 08:51:50;;;;;;;30.77;8.43;;;8.70;99.90;;;;;;12566590;28;20040;-88
2022/12/24 08:57:52;;;;;;;39.75;8.77;;;8.70;99.90;;;;;;12587830;28;20287;-87
2022/12/24 09:03:54;;;;;;;29.88;8.80;;;8.70;99.90;;;;;;12587081;28;20051;-88
2022/12/24 09:09:56;;;;;;;25.83;7.60;;;8.70;99.90;;;;;;12591430;28;20098;-87
2022/12/24 09:15:58;;;;;;;33.25;7.03;;;8.70;99.90;;;;;;12572205;28;20040;-88
2022/12/24 09:22:00;;;;;;;23.13;6.35;;;8.80;99.90;;;;;;12585359;28;20420;-88
2022/12/24 09:28:01;;;;;;;20.33;6.47;;;8.80;99.90;;;;;;12559660;28;20044;-88
2022/12/24 09:34:03;;;;;;;21.05;6.57;;;8.80;99.90;;;;;;12561958;28;20041;-88
2022/12/24 09:40:05;;;;;;;23.00;6.07;;;8.90;99.90;;;;;;12565769;28;20484;-88
2022/12/24 09:46:23;;;;;;;20.85;5.82;;;8.90;99.90;;;;;;12588869;28;20040;-88
2022/12/24 09:52:34;;;;;;;22.50;5.38;;;8.90;99.90;;;;;;12585699;28;20056;-88
2022/12/24 09:58:40;;;;;;;20.33;6.35;;;8.90;99.90;;;;;;12584705;28;20049;-88
2022/12/24 10:04:43;;;;;;;19.52;5.18;;;8.90;99.90;;;;;;12581636;28;20056;-87
2022/12/24 10:10:54;;;;;;;19.73;5.13;;;8.90;99.90;;;;;;12557405;28;20065;-87
2022/12/24 10:17:27;;;;;;;17.35;5.10;;;9.00;99.90;;;;;;12571019;28;20139;-87
2022/12/24 10:24:10;;;;;;;19.00;5.47;;;8.90;99.90;;;;;;12566441;28;20033;-87
2022/12/24 10:30:16;;;;;;;21.00;5.85;;;9.00;99.90;;;;;;12554636;28;20049;-87
2022/12/24 10:36:24;;;;;;;17.10;5.55;;;9.00;99.90;;;;;;12558883;28;20072;-87
2022/12/24 10:42:35;;;;;;;29.25;5.90;;;9.00;99.90;;;;;;12589709;28;20044;-87
2022/12/24 10:48:44;;;;;;;30.10;7.15;;;9.00;99.90;;;;;;12579639;28;20048;-86
2022/12/24 10:55:27;;;;;;;28.30;7.18;;;9.20;99.90;;;;;;12594891;28;20082;-87
2022/12/24 11:01:44;;;;;;;24.25;6.55;;;9.30;99.90;;;;;;12529907;28;20041;-86
2022/12/24 11:08:02;;;;;;;33.83;6.53;;;9.50;99.90;;;;;;12586272;28;20485;-86
2022/12/24 11:14:04;;;;;;;30.52;6.38;;;9.80;99.90;;;;;;12575150;28;20080;-86
2022/12/24 11:20:23;;;;;;;25.70;5.88;;;9.80;99.90;;;;;;12593850;28;20094;-86
2022/12/24 11:26:28;;;;;;;21.55;5.00;;;9.70;99.90;;;;;;12588552;28;20496;-86
2022/12/24 11:32:30;;;;;;;30.17;5.13;;;9.70;99.90;;;;;;12597788;28;20048;-87
2022/12/24 11:38:34;;;;;;;24.08;5.35;;;9.70;99.90;;;;;;12567387;28;20091;-86
2022/12/24 11:44:47;;;;;;;26.05;5.05;;;9.70;99.90;;;;;;12565924;28;20082;-86
2022/12/24 11:51:05;;;;;;;27.17;6.22;;;9.70;99.90;;;;;;12590394;28;20543;-86
2022/12/24 11:57:11;;;;;;;20.20;5.07;;;9.60;99.90;;;;;;12583235;28;20603;-86
2022/12/24 12:03:43;;;;;;;20.85;4.95;;;9.60;99.90;;;;;;12581729;28;20044;-86
2022/12/24 12:09:50;;;;;;;22.33;5.32;;;9.60;99.90;;;;;;12586894;28;20102;-85
2022/12/24 12:16:20;;;;;;;25.88;5.97;;;9.60;99.90;;;;;;12589831;28;20056;-86
2022/12/24 12:22:50;;;;;;;20.10;5.00;;;9.70;99.90;;;;;;12581223;28;20419;-86
2022/12/24 12:28:57;;;;;;;23.83;5.93;;;9.60;99.90;;;;;;12583365;28;20484;-86
2022/12/24 12:35:16;;;;;;;22.65;6.35;;;9.50;99.90;;;;;;12558293;28;20045;-86
2022/12/24 12:41:38;;;;;;;25.83;5.65;;;9.80;99.90;;;;;;12590460;28;20408;-86
2022/12/24 12:48:00;;;;;;;22.13;5.30;;;10.10;99.90;;;;;;12588180;28;20113;-86
2022/12/24 12:54:21;;;;;;;21.80;5.07;;;10.20;99.90;;;;;;12560077;28;20056;-86
2022/12/24 13:00:22;;;;;;;22.92;4.80;;;10.20;99.90;;;;;;12568124;28;20081;-86
2022/12/24 13:06:37;;;;;;;24.42;5.32;;;10.10;99.90;;;;;;12586316;28;20484;-86
2022/12/24 13:13:16;;;;;;;19.27;4.78;;;10.00;99.90;;;;;;12584984;28;20060;-85
2022/12/24 13:20:02;;;;;;;26.88;5.80;;;9.80;99.90;;;;;;12564087;28;20045;-86
2022/12/24 13:26:10;;;;;;;23.02;5.00;;;9.70;99.90;;;;;;12559751;28;20052;-86
2022/12/24 13:32:36;;;;;;;23.33;5.05;;;9.70;99.90;;;;;;12554432;28;20089;-86
2022/12/24 13:38:56;;;;;;;19.98;4.97;;;9.80;99.90;;;;;;12571531;28;20048;-86
2022/12/24 13:51:32;;;;;;;17.08;4.63;;;9.90;99.90;;;;;;12581909;28;20346;-86
2022/12/24 13:57:56;;;;;;;19.83;4.57;;;10.00;99.90;;;;;;12578279;28;20169;-86
2022/12/24 14:04:01;;;;;;;21.50;4.40;;;10.00;99.90;;;;;;12545168;28;20041;-86
2022/12/24 14:10:05;;;;;;;21.13;4.38;;;9.90;99.90;;;;;;12567676;28;20048;-86
2022/12/24 14:16:26;;;;;;;25.88;4.85;;;9.70;99.90;;;;;;12581381;28;20056;-86
2022/12/24 14:22:33;;;;;;;26.67;5.65;;;9.60;99.90;;;;;;12597088;28;20566;-86
2022/12/24 14:28:40;;;;;;;24.63;5.35;;;9.60;99.90;;;;;;12576565;28;20048;-85
2022/12/24 14:34:42;;;;;;;21.33;5.40;;;9.60;99.90;;;;;;12594730;28;20060;-85
2022/12/24 14:41:08;;;;;;;26.48;5.65;;;9.60;99.90;;;;;;12589841;28;20090;-86
2022/12/24 14:47:24;;;;;;;19.25;4.75;;;9.40;99.90;;;;;;12590307;28;20056;-86
2022/12/24 14:53:28;;;;;;;28.30;5.43;;;9.40;99.90;;;;;;12600730;28;20131;-86
2022/12/24 14:59:38;;;;;;;15.60;4.10;;;9.40;99.90;;;;;;12577441;28;20056;-86
2022/12/24 15:05:41;;;;;;;23.60;4.13;;;9.20;99.90;;;;;;12573840;28;20412;-86
2022/12/24 15:11:45;;;;;;;22.00;5.53;;;9.30;99.90;;;;;;12591351;28;20452;-86
2022/12/24 15:17:47;;;;;;;29.80;4.93;;;9.40;99.90;;;;;;12588864;28;20417;-86
2022/12/24 15:23:50;;;;;;;25.73;4.63;;;9.50;99.90;;;;;;12563568;28;20097;-86
2022/12/24 15:29:55;;;;;;;21.05;4.30;;;9.30;99.90;;;;;;12590797;28;21076;-86
2022/12/24 15:35:57;;;;;;;19.75;4.43;;;9.10;99.90;;;;;;12573000;28;20080;-86
2022/12/24 15:42:14;;;;;;;24.38;5.05;;;8.90;99.90;;;;;;12602368;28;20504;-86
2022/12/24 15:48:24;;;;;;;20.88;4.30;;;8.90;99.90;;;;;;12580829;28;20051;-85
2022/12/24 15:54:26;;;;;;;19.00;3.97;;;8.90;99.90;;;;;;12571189;28;20044;-85
2022/12/24 16:00:31;;;;;;;17.60;3.92;;;8.80;99.90;;;;;;12569363;28;20052;-85
2022/12/24 16:06:53;;;;;;;20.85;3.90;;;8.70;99.90;;;;;;12571325;28;20135;-85
2022/12/24 16:12:55;;;;;;;20.55;3.38;;;8.80;99.90;;;;;;12568888;28;20492;-85
2022/12/24 16:19:01;;;;;;;17.02;4.13;;;8.80;99.90;;;;;;12587928;28;20480;-86
2022/12/24 16:25:22;;;;;;;24.75;4.30;;;8.70;99.90;;;;;;12547826;28;20051;-86
2022/12/24 16:31:36;;;;;;;17.25;4.00;;;8.40;99.90;;;;;;12582080;28;20082;-86
2022/12/24 16:37:38;;;;;;;;;;;8.10;99.90;;;;;;12578125;28;20056;-86
2022/12/24 16:43:49;;;;;;;23.70;6.15;;;8.00;99.90;;;;;;12586289;28;19932;-86
2022/12/24 16:49:51;;;;;;;27.85;5.72;;;8.10;99.90;;;;;;12579282;28;20423;-85
2022/12/24 16:55:54;;;;;;;28.83;7.53;;;8.10;99.90;;;;;;12572979;28;20331;-85
2022/12/24 17:01:56;;;;;;;23.33;6.65;;;8.20;99.90;;;;;;12570542;28;20063;-85
2022/12/24 17:07:59;;;;;;;31.27;6.95;;;8.20;99.90;;;;;;12582618;28;20053;-85
2022/12/24 17:14:02;;;;;;;31.73;8.10;;;8.10;99.90;;;;;;12581880;28;20397;-85
2022/12/24 17:20:09;;;;;;;24.30;7.35;;;8.20;99.90;;;;;;12575308;28;20409;-85
2022/12/24 17:26:12;;;;;;;29.77;7.03;;;8.10;99.90;;;;;;12580135;28;20040;-85
2022/12/24 17:32:16;;;;;;;23.10;6.57;;;8.10;99.90;;;;;;12554882;28;20126;-85
2022/12/24 17:38:17;;;;;;;26.48;7.32;;;8.00;99.90;;;;;;12521681;28;20057;-85
2022/12/24 17:44:19;;;;;;;22.98;6.68;;;7.90;99.90;;;;;;12534736;28;20793;-85
2022/12/24 17:50:21;;;;;;;24.20;6.57;;;7.80;99.90;;;;;;12534802;28;20048;-85
2022/12/24 17:56:23;;;;;;;29.77;7.38;;;7.80;99.90;;;;;;12540568;28;20485;-85
2022/12/24 18:02:25;;;;;;;30.77;7.28;;;7.70;99.90;;;;;;12515761;28;20049;-85
2022/12/24 18:08:27;;;;;;;29.08;7.57;;;7.70;99.90;;;;;;12537453;28;20056;-85
2022/12/24 18:14:29;;;;;;;24.85;7.25;;;7.70;99.90;;;;;;12534589;28;20090;-85
2022/12/24 18:20:33;;;;;;;23.65;7.15;;;7.70;99.90;;;;;;12524793;28;20045;-85
2022/12/24 18:26:35;;;;;;;28.17;8.10;;;7.60;99.90;;;;;;12538123;28;20101;-85
2022/12/24 18:32:37;;;;;;;22.92;7.65;;;7.70;99.90;;;;;;12516949;28;20071;-85
2022/12/24 18:38:39;;;;;;;23.80;7.75;;;7.50;99.90;;;;;;12544004;28;20059;-85
2022/12/24 18:44:41;;;;;;;26.83;7.35;;;7.50;99.90;;;;;;12551037;28;20049;-85
2022/12/24 18:50:52;;;;;;;28.77;7.88;;;7.40;99.90;;;;;;12545734;28;20891;-85
2022/12/24 18:56:54;;;;;;;29.40;8.02;;;7.30;99.90;;;;;;12543650;28;20064;-85
2022/12/24 19:02:56;;;;;;;25.48;7.95;;;7.40;99.90;;;;;;12557862;28;20045;-85
2022/12/24 19:08:58;;;;;;;31.02;8.02;;;7.30;99.90;;;;;;12548345;28;20048;-85
2022/12/24 19:15:02;;;;;;;22.93;8.33;;;7.20;99.90;;;;;;12543211;28;20045;-85
2022/12/24 19:21:10;;;;;;;24.50;8.20;;;7.10;99.90;;;;;;12541106;28;20295;-85
2022/12/24 19:27:11;;;;;;;29.83;9.10;;;7.00;99.90;;;;;;12538818;28;20119;-85
2022/12/24 19:33:13;;;;;;;23.75;8.60;;;7.00;99.90;;;;;;12575510;28;20049;-85
2022/12/24 19:39:15;;;;;;;30.17;9.30;;;7.30;99.90;;;;;;12572665;28;20059;-85
2022/12/24 19:45:18;;;;;;;26.27;9.18;;;7.30;99.90;;;;;;12591018;28;20040;-85
2022/12/24 19:51:21;;;;;;;29.38;8.52;;;7.10;99.90;;;;;;12591122;28;20045;-85
2022/12/24 19:57:23;;;;;;;32.80;9.10;;;6.90;99.90;;;;;;12582747;28;20101;-85
2022/12/24 20:03:24;;;;;;;32.22;10.02;;;6.80;99.90;;;;;;12580629;28;20952;-85
2022/12/24 20:09:27;;;;;;;23.35;9.02;;;6.70;99.90;;;;;;12563081;28;20049;-85
2022/12/24 20:15:29;;;;;;;33.95;10.63;;;6.60;99.90;;;;;;12569077;28;20048;-85
2022/12/24 20:21:32;;;;;;;36.88;10.57;;;6.60;99.90;;;;;;12556484;28;20054;-85
2022/12/24 20:27:34;;;;;;;31.30;11.50;;;6.70;99.90;;;;;;12575363;28;20045;-85
2022/12/24 20:33:35;;;;;;;27.35;9.93;;;6.70;99.90;;;;;;12592184;28;20404;-85
2022/12/24 20:39:37;;;;;;;38.25;13.10;;;6.70;99.90;;;;;;12597144;28;20040;-85
2022/12/24 20:45:39;;;;;;;36.22;11.10;;;6.70;99.90;;;;;;12588260;28;20040;-85
2022/12/24 20:51:41;;;;;;;37.15;11.02;;;6.70;99.90;;;;;;12589183;28;20040;-85
2022/12/24 20:57:43;;;;;;;32.28;10.45;;;6.60;99.90;;;;;;12583352;28;20049;-85
2022/12/24 21:03:45;;;;;;;28.83;10.32;;;6.50;99.90;;;;;;12587098;28;20560;-85
2022/12/24 21:09:47;;;;;;;30.13;9.85;;;6.50;99.90;;;;;;12586195;28;20044;-85
2022/12/24 21:15:49;;;;;;;30.70;10.10;;;6.50;99.90;;;;;;12586888;28;20048;-85
2022/12/24 21:21:51;;;;;;;35.70;9.50;;;6.50;99.90;;;;;;12585367;28;20089;-85
2022/12/24 21:27:56;;;;;;;32.83;9.18;;;6.60;99.90;;;;;;12578737;28;20530;-85
2022/12/24 21:33:58;;;;;;;29.88;8.77;;;6.50;99.90;;;;;;12578428;28;20044;-85
2022/12/24 21:39:59;;;;;;;29.27;8.45;;;6.60;99.90;;;;;;12581803;28;20052;-85
2022/12/24 21:46:06;;;;;;;35.50;8.82;;;6.60;99.90;;;;;;12584278;28;20049;-85
2022/12/24 21:52:08;;;;;;;28.05;8.77;;;6.50;99.90;;;;;;12564626;28;20047;-85
2022/12/24 21:58:10;;;;;;;35.83;8.60;;;6.40;99.90;;;;;;12588447;28;20056;-85
2022/12/24 22:04:12;;;;;;;34.78;8.63;;;6.30;99.90;;;;;;12586953;28;20048;-85
2022/12/24 22:16:34;;;;;;;29.42;7.20;;;6.40;99.90;;;;;;12580840;28;20052;-85
2022/12/24 22:22:36;;;;;;;29.67;6.38;;;6.40;99.90;;;;;;12563488;28;20051;-85
2022/12/24 22:28:38;;;;;;;28.90;6.78;;;6.40;99.90;;;;;;12562883;28;20047;-85
2022/12/24 22:34:40;;;;;;;21.33;6.32;;;6.30;99.90;;;;;;12589397;28;20139;-85
2022/12/24 22:40:42;;;;;;;30.00;7.07;;;6.30;99.90;;;;;;12590311;28;20040;-85
2022/12/24 22:46:43;;;;;;;35.45;7.05;;;6.30;99.90;;;;;;12587796;28;20074;-85
2022/12/24 22:52:45;;;;;;;31.60;5.95;;;6.40;99.90;;;;;;12575691;28;20089;-85
2022/12/24 22:58:55;;;;;;;35.58;7.70;;;6.40;99.90;;;;;;12577690;28;20044;-85
2022/12/24 23:04:57;;;;;;;32.42;5.85;;;6.30;99.90;;;;;;12587248;28;20096;-85
2022/12/24 23:11:11;;;;;;;27.98;6.13;;;6.20;99.90;;;;;;12593883;28;20044;-85
2022/12/24 23:17:13;;;;;;;36.67;7.20;;;6.30;99.90;;;;;;12594569;28;20489;-84
2022/12/24 23:23:15;;;;;;;29.55;6.20;;;6.40;99.90;;;;;;12581359;28;20056;-85
2022/12/24 23:29:17;;;;;;;30.05;7.05;;;6.50;99.90;;;;;;12593946;28;20500;-85
2022/12/24 23:35:19;;;;;;;36.80;6.82;;;6.50;99.90;;;;;;12571782;28;20044;-85
2022/12/24 23:41:21;;;;;;;33.65;6.18;;;6.50;99.90;;;;;;12610517;28;20033;-86
2022/12/24 23:47:22;;;;;;;27.25;5.90;;;6.60;99.90;;;;;;12649572;28;20704;-86
2022/12/24 23:53:24;;;;;;;28.80;5.70;;;6.60;99.90;;;;;;12650357;28;20055;-85
2022/12/24 23:59:26;;;;;;;26.55;5.97;;;6.60;99.90;;;;;;12645584;28;20040;-85
